createdAt,value
2018-01-28T00:01:45.988Z,95.25
2018-01-28T00:04:12.176Z,95.21
2018-01-28T00:06:38.359Z,95.22
2018-01-28T00:09:04.720Z,95.22
2018-01-28T00:11:30.901Z,95.26
2018-01-28T00:13:57.120Z,95.23
2018-01-28T00:16:23.358Z,95.31
2018-01-28T00:18:49.543Z,95.32
2018-01-28T00:21:15.816Z,95.37
2018-01-28T00:23:42.073Z,95.37
2018-01-28T00:26:08.317Z,95.40
2018-01-28T00:28:34.492Z,95.42
2018-01-28T00:31:00.702Z,95.46
2018-01-28T00:33:26.937Z,95.45
2018-01-28T00:35:53.116Z,95.47
2018-01-28T00:38:19.334Z,95.49
2018-01-28T00:40:45.525Z,95.54
2018-01-28T00:43:11.752Z,95.56
2018-01-28T00:45:37.936Z,95.58
2018-01-28T00:48:04.079Z,95.64
2018-01-28T00:50:30.265Z,95.61
2018-01-28T00:52:56.497Z,95.59
2018-01-28T00:55:22.644Z,95.65
2018-01-28T00:57:48.837Z,95.71
2018-01-28T01:00:15.083Z,95.69
2018-01-28T01:02:41.291Z,95.67
2018-01-28T01:05:07.445Z,95.67
2018-01-28T01:07:33.672Z,95.71
2018-01-28T01:09:59.911Z,95.72
2018-01-28T01:12:26.089Z,95.69
2018-01-28T01:14:52.293Z,95.77
2018-01-28T01:17:18.453Z,95.71
2018-01-28T01:19:44.660Z,95.74
2018-01-28T01:22:10.861Z,95.75
2018-01-28T01:24:37.128Z,95.79
2018-01-28T01:27:03.265Z,95.78
2018-01-28T01:29:29.432Z,95.71
2018-01-28T01:31:55.657Z,95.69
2018-01-28T01:34:21.854Z,95.65
2018-01-28T01:36:48.016Z,95.62
2018-01-28T01:39:14.263Z,95.66
2018-01-28T01:41:40.494Z,95.65
2018-01-28T01:44:06.684Z,95.64
2018-01-28T01:46:32.847Z,95.63
2018-01-28T01:48:59.044Z,95.59
2018-01-28T01:51:25.209Z,95.54
2018-01-28T01:53:51.447Z,95.52
2018-01-28T01:56:17.614Z,95.48
2018-01-28T01:58:43.774Z,95.50
2018-01-28T02:01:09.992Z,95.50
2018-01-28T02:03:36.225Z,95.62
2018-01-28T02:06:02.429Z,95.60
2018-01-28T02:08:28.656Z,95.63
2018-01-28T02:10:54.788Z,95.68
2018-01-28T02:13:21.013Z,95.73
2018-01-28T02:15:47.211Z,95.77
2018-01-28T02:18:13.418Z,95.72
2018-01-28T02:20:39.629Z,95.67
2018-01-28T02:23:05.860Z,95.71
2018-01-28T02:25:31.988Z,95.71
2018-01-28T02:27:58.139Z,95.77
2018-01-28T02:30:24.301Z,95.71
2018-01-28T02:32:50.499Z,95.68
2018-01-28T02:35:16.692Z,95.60
2018-01-28T02:37:42.959Z,95.55
2018-01-28T02:40:09.123Z,95.51
2018-01-28T02:42:35.337Z,95.50
2018-01-28T02:45:01.531Z,95.48
2018-01-28T02:47:28.808Z,95.42
2018-01-28T02:49:54.969Z,95.39
2018-01-28T02:52:21.213Z,95.43
2018-01-28T02:54:47.415Z,95.44
2018-01-28T02:57:13.564Z,95.40
2018-01-28T02:59:39.718Z,95.33
2018-01-28T03:02:05.900Z,95.31
2018-01-28T03:04:32.128Z,95.31
2018-01-28T03:06:58.280Z,95.32
2018-01-28T03:09:24.446Z,95.36
2018-01-28T03:11:50.670Z,95.31
2018-01-28T03:14:16.954Z,95.34
2018-01-28T03:16:43.083Z,95.43
2018-01-28T03:19:09.265Z,95.57
2018-01-28T03:21:35.406Z,95.64
2018-01-28T03:24:01.664Z,95.59
2018-01-28T03:26:27.847Z,95.49
2018-01-28T03:28:54.033Z,95.45
2018-01-28T03:31:20.246Z,95.43
2018-01-28T03:33:46.554Z,95.50
2018-01-28T03:36:12.781Z,95.56
2018-01-28T03:38:39.007Z,95.60
2018-01-28T03:41:05.280Z,95.53
2018-01-28T03:43:31.492Z,95.54
2018-01-28T03:45:57.668Z,95.51
2018-01-28T03:48:23.820Z,95.47
2018-01-28T03:50:50.005Z,95.42
2018-01-28T03:53:16.229Z,95.32
2018-01-28T03:55:42.397Z,95.32
2018-01-28T03:58:08.580Z,95.29
2018-01-28T04:00:34.811Z,95.23
2018-01-28T04:03:00.965Z,95.25
2018-01-28T04:05:27.223Z,95.25
2018-01-28T04:07:53.355Z,95.24
2018-01-28T04:10:19.524Z,95.34
2018-01-28T04:12:45.756Z,95.13
2018-01-28T04:15:11.996Z,95.03
2018-01-28T04:17:38.166Z,95.08
2018-01-28T04:20:04.376Z,95.05
2018-01-28T04:22:30.608Z,94.95
2018-01-28T04:24:56.838Z,94.94
2018-01-28T04:27:23.062Z,94.79
2018-01-28T04:29:49.214Z,94.68
2018-01-28T04:32:15.414Z,94.69
2018-01-28T04:34:41.641Z,94.73
2018-01-28T04:37:07.813Z,94.73
2018-01-28T04:39:33.991Z,94.75
2018-01-28T04:42:00.229Z,94.53
2018-01-28T04:44:26.494Z,94.44
2018-01-28T04:46:52.651Z,94.30
2018-01-28T04:49:18.785Z,94.33
2018-01-28T04:51:44.953Z,94.21
2018-01-28T04:54:11.170Z,94.12
2018-01-28T04:56:37.330Z,94.06
2018-01-28T04:59:03.569Z,94.03
2018-01-28T05:01:30.717Z,94.00
2018-01-28T05:03:56.949Z,94.02
2018-01-28T05:06:23.149Z,94.03
2018-01-28T05:08:49.374Z,94.10
2018-01-28T05:11:15.628Z,94.11
2018-01-28T05:13:41.882Z,94.31
2018-01-28T05:16:08.097Z,94.41
2018-01-28T05:18:34.342Z,94.35
2018-01-28T05:21:00.523Z,94.29
2018-01-28T05:23:26.840Z,94.31
2018-01-28T05:25:53.512Z,94.38
2018-01-28T05:28:19.790Z,94.28
2018-01-28T05:30:45.968Z,94.32
2018-01-28T05:33:12.826Z,94.39
2018-01-28T05:35:39.091Z,94.45
2018-01-28T05:38:05.271Z,94.41
2018-01-28T05:40:31.427Z,94.30
2018-01-28T05:42:57.669Z,94.33
2018-01-28T05:45:23.949Z,94.31
2018-01-28T05:47:50.105Z,94.33
2018-01-28T05:50:16.307Z,94.30
2018-01-28T05:52:42.531Z,94.32
2018-01-28T05:55:08.735Z,94.40
2018-01-28T05:57:34.966Z,94.41
2018-01-28T06:00:01.262Z,94.30
2018-01-28T06:02:27.492Z,94.39
2018-01-28T06:04:53.748Z,94.31
2018-01-28T06:07:19.963Z,94.36
2018-01-28T06:09:46.174Z,94.53
2018-01-28T06:12:12.378Z,94.31
2018-01-28T06:14:38.611Z,94.47
2018-01-28T06:17:04.813Z,94.29
2018-01-28T06:19:31.048Z,94.20
2018-01-28T06:21:57.300Z,94.31
2018-01-28T06:24:23.561Z,94.33
2018-01-28T06:26:49.811Z,94.31
2018-01-28T06:29:16.032Z,94.53
2018-01-28T06:31:42.292Z,94.52
2018-01-28T06:34:08.567Z,94.67
2018-01-28T06:36:34.850Z,94.71
2018-01-28T06:39:01.082Z,94.83
2018-01-28T06:41:27.447Z,94.80
2018-01-28T06:43:53.746Z,94.62
2018-01-28T06:46:19.927Z,94.62
2018-01-28T06:48:46.119Z,94.56
2018-01-28T06:51:12.367Z,94.59
2018-01-28T06:53:38.570Z,94.67
2018-01-28T06:56:04.901Z,94.61
2018-01-28T06:58:31.227Z,94.64
2018-01-28T07:00:57.467Z,94.68
2018-01-28T07:03:23.654Z,94.60
2018-01-28T07:05:49.914Z,94.60
2018-01-28T07:08:16.110Z,94.71
2018-01-28T07:10:42.270Z,94.64
2018-01-28T07:13:08.508Z,94.70
2018-01-28T07:15:34.760Z,94.69
2018-01-28T07:18:00.925Z,94.79
2018-01-28T07:20:27.103Z,94.81
2018-01-28T07:22:53.350Z,94.77
2018-01-28T07:25:19.595Z,94.82
2018-01-28T07:27:45.843Z,94.81
2018-01-28T07:30:12.145Z,94.92
2018-01-28T07:32:38.379Z,94.98
2018-01-28T07:35:04.741Z,94.94
2018-01-28T07:37:30.959Z,94.88
2018-01-28T07:39:57.151Z,94.92
2018-01-28T07:42:23.480Z,94.99
2018-01-28T07:44:49.771Z,95.00
2018-01-28T07:47:15.986Z,95.04
2018-01-28T07:49:42.201Z,95.04
2018-01-28T07:52:08.478Z,94.99
2018-01-28T07:54:34.770Z,95.01
2018-01-28T07:57:01.027Z,94.96
2018-01-28T07:59:27.280Z,95.01
2018-01-28T08:01:53.592Z,94.86
2018-01-28T08:04:19.805Z,94.87
2018-01-28T08:06:46.988Z,94.85
2018-01-28T08:09:13.270Z,94.87
2018-01-28T08:11:49.609Z,94.77
2018-01-28T08:14:16.831Z,94.53
2018-01-28T08:16:43.065Z,94.38
2018-01-28T08:19:09.355Z,94.36
2018-01-28T08:21:35.617Z,94.33
2018-01-28T08:24:01.887Z,94.24
2018-01-28T08:26:28.170Z,94.31
2018-01-28T08:29:01.366Z,94.35
2018-01-28T08:31:27.540Z,94.27
2018-01-28T08:33:53.791Z,94.32
2018-01-28T08:36:20.090Z,94.03
2018-01-28T08:38:46.366Z,93.84
2018-01-28T08:41:12.604Z,93.83
2018-01-28T08:43:38.843Z,93.77
2018-01-28T08:46:05.060Z,93.62
2018-01-28T08:48:32.209Z,93.71
2018-01-28T08:50:58.489Z,93.48
2018-01-28T08:53:24.672Z,93.58
2018-01-28T08:55:50.912Z,93.50
2018-01-28T08:58:17.134Z,93.39
2018-01-28T09:00:43.322Z,93.12
2018-01-28T09:03:09.588Z,93.09
2018-01-28T09:05:35.835Z,93.11
2018-01-28T09:08:02.052Z,92.89
2018-01-28T09:10:28.310Z,92.65
2018-01-28T09:12:54.940Z,92.58
2018-01-28T09:15:21.267Z,92.56
2018-01-28T09:17:47.459Z,92.56
2018-01-28T09:20:13.658Z,92.36
2018-01-28T09:22:39.949Z,92.41
2018-01-28T09:25:06.321Z,92.46
2018-01-28T09:27:32.510Z,92.37
2018-01-28T09:29:58.843Z,92.05
2018-01-28T09:32:25.033Z,92.05
2018-01-28T09:34:51.283Z,92.05
2018-01-28T09:37:17.479Z,91.94
2018-01-28T09:39:43.682Z,91.88
2018-01-28T09:42:10.123Z,91.94
2018-01-28T09:44:36.550Z,91.57
2018-01-28T09:47:02.789Z,91.46
2018-01-28T09:49:29.114Z,91.10
2018-01-28T09:51:55.368Z,91.20
2018-01-28T09:54:21.613Z,90.80
2018-01-28T09:56:47.862Z,91.03
2018-01-28T09:59:14.075Z,90.96
2018-01-28T10:01:40.273Z,90.58
2018-01-28T10:04:06.507Z,90.44
2018-01-28T10:06:32.791Z,90.29
2018-01-28T10:08:58.975Z,90.02
2018-01-28T10:11:25.214Z,89.79
2018-01-28T10:13:51.449Z,89.58
2018-01-28T10:16:17.702Z,89.77
2018-01-28T10:18:43.986Z,89.49
2018-01-28T10:21:10.241Z,89.62
2018-01-28T10:23:36.476Z,89.60
2018-01-28T10:26:02.766Z,88.93
2018-01-28T10:28:28.994Z,89.35
2018-01-28T10:30:55.210Z,89.42
2018-01-28T10:33:21.524Z,89.24
2018-01-28T10:35:47.778Z,89.40
2018-01-28T10:38:14.044Z,88.09
2018-01-28T10:40:40.228Z,88.14
2018-01-28T10:43:06.559Z,88.40
2018-01-28T10:45:32.917Z,88.49
2018-01-28T10:47:59.604Z,88.81
2018-01-28T10:50:26.025Z,88.65
2018-01-28T10:52:52.183Z,89.01
2018-01-28T10:55:18.431Z,88.66
2018-01-28T10:57:44.570Z,88.02
2018-01-28T11:00:10.710Z,88.12
2018-01-28T11:02:36.910Z,87.78
2018-01-28T11:05:03.108Z,87.42
2018-01-28T11:07:29.351Z,88.23
2018-01-28T11:09:55.546Z,88.15
2018-01-28T11:12:21.752Z,88.30
2018-01-28T11:14:47.897Z,88.07
2018-01-28T11:17:14.039Z,87.44
2018-01-28T11:19:40.301Z,87.34
2018-01-28T11:22:06.461Z,87.31
2018-01-28T11:24:32.562Z,87.78
2018-01-28T11:26:58.720Z,88.01
2018-01-28T11:29:24.841Z,87.97
2018-01-28T11:31:50.978Z,87.65
2018-01-28T11:34:17.088Z,87.94
2018-01-28T11:36:50.156Z,88.25
2018-01-28T11:39:16.292Z,88.31
2018-01-28T11:41:42.508Z,87.34
2018-01-28T11:44:08.633Z,87.86
2018-01-28T11:46:34.804Z,87.28
2018-01-28T11:49:00.993Z,87.91
2018-01-28T11:51:27.123Z,87.39
2018-01-28T11:53:53.565Z,87.94
2018-01-28T11:56:20.029Z,88.17
2018-01-28T11:58:46.181Z,87.84
2018-01-28T12:01:12.334Z,87.99
2018-01-28T12:03:38.490Z,88.07
2018-01-28T12:06:04.752Z,88.31
2018-01-28T12:08:30.886Z,88.67
2018-01-28T12:10:57.000Z,88.44
2018-01-28T12:13:23.167Z,88.53
2018-01-28T12:15:49.335Z,88.62
2018-01-28T12:18:15.482Z,88.18
2018-01-28T12:20:41.628Z,87.59
2018-01-28T12:23:07.803Z,87.94
2018-01-28T12:25:33.959Z,88.04
2018-01-28T12:28:00.104Z,87.81
2018-01-28T12:30:26.229Z,87.82
2018-01-28T12:32:52.370Z,88.34
2018-01-28T12:35:19.233Z,88.28
2018-01-28T12:37:45.385Z,88.19
2018-01-28T12:40:11.617Z,88.56
2018-01-28T12:42:44.944Z,88.15
2018-01-28T12:45:11.073Z,87.92
2018-01-28T12:47:37.242Z,88.15
2018-01-28T12:50:03.426Z,87.90
2018-01-28T12:52:29.674Z,87.61
2018-01-28T12:54:55.828Z,88.10
2018-01-28T12:57:22.731Z,88.03
2018-01-28T12:59:48.915Z,88.24
2018-01-28T13:02:15.055Z,88.31
2018-01-28T13:04:41.148Z,88.49
2018-01-28T13:07:07.311Z,88.60
2018-01-28T13:09:33.470Z,88.41
2018-01-28T13:11:59.640Z,88.19
2018-01-28T13:14:25.767Z,88.29
2018-01-28T13:16:51.970Z,88.37
2018-01-28T13:19:18.068Z,87.93
2018-01-28T13:21:44.246Z,88.26
2018-01-28T13:24:10.392Z,88.54
2018-01-28T13:26:36.541Z,88.45
2018-01-28T13:29:02.726Z,88.54
2018-01-28T13:31:28.917Z,88.48
2018-01-28T13:33:55.038Z,88.32
2018-01-28T13:36:21.261Z,88.62
2018-01-28T13:38:47.380Z,88.42
2018-01-28T13:41:13.671Z,88.34
2018-01-28T13:43:39.823Z,88.54
2018-01-28T13:46:06.029Z,88.68
2018-01-28T13:48:32.227Z,88.60
2018-01-28T13:50:58.362Z,88.59
2018-01-28T13:53:24.587Z,89.01
2018-01-28T13:55:50.809Z,88.98
2018-01-28T13:58:16.944Z,88.87
2018-01-28T14:00:43.096Z,88.96
2018-01-28T14:03:09.347Z,89.33
2018-01-28T14:05:35.535Z,89.25
2018-01-28T14:08:01.704Z,89.46
2018-01-28T14:10:27.885Z,89.58
2018-01-28T14:12:54.091Z,89.68
2018-01-28T14:15:20.281Z,89.47
2018-01-28T14:17:46.443Z,89.42
2018-01-28T14:20:12.612Z,89.97
2018-01-28T14:22:38.888Z,89.84
2018-01-28T14:25:05.057Z,89.91
2018-01-28T14:27:31.290Z,89.97
2018-01-28T14:29:57.415Z,89.98
2018-01-28T14:32:23.520Z,90.27
2018-01-28T14:34:49.656Z,90.33
2018-01-28T14:37:15.805Z,90.50
2018-01-28T14:39:41.958Z,90.55
2018-01-28T14:42:08.150Z,90.64
2018-01-28T14:44:34.281Z,90.68
2018-01-28T14:47:00.446Z,90.73
2018-01-28T14:49:26.656Z,90.82
2018-01-28T14:51:52.796Z,90.85
2018-01-28T14:54:18.951Z,90.82
2018-01-28T14:56:45.255Z,90.57
2018-01-28T14:59:11.346Z,90.63
2018-01-28T15:01:37.513Z,90.08
2018-01-28T15:04:03.697Z,89.88
2018-01-28T15:06:29.919Z,90.04
2018-01-28T15:08:56.082Z,89.73
2018-01-28T15:11:22.213Z,89.71
2018-01-28T15:13:48.380Z,89.76
2018-01-28T15:16:14.614Z,89.55
2018-01-28T15:18:40.821Z,89.71
2018-01-28T15:21:06.943Z,89.48
2018-01-28T15:23:34.570Z,89.39
2018-01-28T15:26:00.667Z,89.54
2018-01-28T15:28:26.843Z,89.43
2018-01-28T15:30:52.979Z,89.44
2018-01-28T15:33:19.103Z,89.24
2018-01-28T15:35:45.967Z,88.76
2018-01-28T15:38:12.160Z,88.91
2018-01-28T15:40:38.271Z,88.89
2018-01-28T15:43:04.472Z,88.27
2018-01-28T15:45:30.680Z,88.66
2018-01-28T15:47:56.891Z,88.87
2018-01-28T15:50:23.045Z,88.87
2018-01-28T15:52:49.328Z,88.78
2018-01-28T15:55:15.509Z,89.12
2018-01-28T15:57:41.899Z,88.68
2018-01-28T16:00:08.755Z,88.90
2018-01-28T16:02:34.878Z,88.74
2018-01-28T16:05:01.011Z,88.83
2018-01-28T16:07:27.248Z,89.09
2018-01-28T16:09:53.387Z,89.13
2018-01-28T16:12:19.581Z,89.08
2018-01-28T16:14:45.713Z,88.96
2018-01-28T16:17:13.601Z,88.77
2018-01-28T16:19:39.973Z,88.57
2018-01-28T16:22:06.201Z,88.82
2018-01-28T16:24:32.476Z,88.79
2018-01-28T16:26:58.977Z,88.92
2018-01-28T16:29:26.215Z,89.07
2018-01-28T16:31:52.458Z,89.01
2018-01-28T16:34:18.763Z,88.83
2018-01-28T16:36:45.914Z,88.65
2018-01-28T16:39:12.160Z,88.57
2018-01-28T16:41:38.756Z,88.84
2018-01-28T16:44:05.051Z,88.20
2018-01-28T16:46:31.266Z,88.41
2018-01-28T16:48:58.735Z,88.15
2018-01-28T16:51:25.089Z,88.36
2018-01-28T16:53:51.556Z,88.51
2018-01-28T16:56:17.968Z,88.76
2018-01-28T16:58:44.347Z,88.33
2018-01-28T17:01:10.532Z,88.40
2018-01-28T17:03:36.714Z,88.18
2018-01-28T17:06:03.008Z,88.44
2018-01-28T17:08:29.265Z,88.24
2018-01-28T17:10:55.479Z,87.89
2018-01-28T17:13:23.794Z,88.18
2018-01-28T17:15:50.307Z,88.26
2018-01-28T17:18:16.510Z,88.22
2018-01-28T17:20:42.874Z,88.26
2018-01-28T17:23:09.186Z,88.21
2018-01-28T17:25:37.500Z,88.18
2018-01-28T17:28:03.727Z,88.24
2018-01-28T17:30:29.974Z,88.22
2018-01-28T17:32:56.181Z,88.17
2018-01-28T17:35:28.419Z,88.02
2018-01-28T17:37:54.712Z,87.88
2018-01-28T17:40:20.989Z,87.71
2018-01-28T17:42:47.366Z,87.83
2018-01-28T17:45:13.694Z,87.77
2018-01-28T17:47:48.818Z,87.47
2018-01-28T17:50:22.688Z,87.64
2018-01-28T17:52:56.229Z,87.58
2018-01-28T17:55:31.231Z,87.51
2018-01-28T17:58:06.185Z,87.56
2018-01-28T18:00:34.144Z,87.67
2018-01-28T18:03:00.410Z,87.52
2018-01-28T18:05:26.745Z,87.56
2018-01-28T18:07:53.044Z,87.50
2018-01-28T18:10:19.325Z,87.51
2018-01-28T18:12:45.618Z,87.51
2018-01-28T18:15:11.790Z,87.68
2018-01-28T18:17:37.975Z,87.50
2018-01-28T18:20:04.230Z,87.58
2018-01-28T18:22:30.598Z,87.52
2018-01-28T18:24:56.799Z,87.48
2018-01-28T18:27:23.077Z,87.61
2018-01-28T18:29:49.321Z,87.91
2018-01-28T18:32:15.629Z,88.02
2018-01-28T18:34:41.840Z,88.37
2018-01-28T18:37:08.037Z,88.59
2018-01-28T18:39:34.415Z,88.60
2018-01-28T18:42:00.765Z,88.79
2018-01-28T18:44:27.002Z,88.72
2018-01-28T18:46:53.253Z,88.77
2018-01-28T18:49:19.499Z,88.43
2018-01-28T18:51:45.831Z,88.51
2018-01-28T18:54:12.034Z,88.33
2018-01-28T18:56:38.305Z,88.52
2018-01-28T18:59:04.609Z,88.42
2018-01-28T19:01:30.815Z,88.33
2018-01-28T19:03:57.079Z,88.38
2018-01-28T19:06:23.279Z,88.25
2018-01-28T19:08:50.335Z,88.24
2018-01-28T19:11:16.569Z,88.23
2018-01-28T19:13:42.838Z,88.23
2018-01-28T19:16:09.078Z,88.28
2018-01-28T19:18:35.339Z,88.41
2018-01-28T19:21:01.567Z,88.40
2018-01-28T19:23:27.775Z,88.30
2018-01-28T19:25:54.264Z,88.42
2018-01-28T19:28:20.529Z,88.43
2018-01-28T19:30:46.738Z,88.55
2018-01-28T19:33:13.051Z,88.57
2018-01-28T19:35:39.341Z,88.38
2018-01-28T19:38:05.574Z,88.26
2018-01-28T19:40:31.900Z,88.71
2018-01-28T19:42:58.245Z,88.82
2018-01-28T19:45:24.632Z,88.85
2018-01-28T19:47:50.863Z,88.91
2018-01-28T19:50:17.166Z,88.90
2018-01-28T19:52:43.400Z,88.90
2018-01-28T19:55:09.713Z,89.10
2018-01-28T19:57:35.975Z,89.12
2018-01-28T20:00:02.321Z,89.04
2018-01-28T20:02:28.593Z,89.04
2018-01-28T20:04:54.822Z,89.13
2018-01-28T20:07:21.892Z,89.23
2018-01-28T20:09:48.178Z,89.32
2018-01-28T20:12:14.477Z,89.42
2018-01-28T20:14:40.777Z,89.43
2018-01-28T20:17:06.970Z,89.40
2018-01-28T20:19:33.211Z,89.36
2018-01-28T20:21:59.473Z,89.41
2018-01-28T20:24:25.731Z,89.32
2018-01-28T20:26:51.898Z,89.25
2018-01-28T20:29:18.233Z,89.45
2018-01-28T20:31:44.565Z,89.46
2018-01-28T20:34:10.787Z,89.44
2018-01-28T20:36:36.983Z,89.61
2018-01-28T20:39:03.266Z,89.64
2018-01-28T20:41:29.522Z,89.63
2018-01-28T20:43:55.734Z,89.61
2018-01-28T20:46:21.938Z,89.47
2018-01-28T20:48:48.154Z,89.32
2018-01-28T20:51:14.486Z,89.35
2018-01-28T20:53:40.682Z,89.40
2018-01-28T20:56:06.984Z,89.35
2018-01-28T20:58:33.219Z,89.39
2018-01-28T21:00:59.411Z,89.39
2018-01-28T21:03:25.601Z,89.39
2018-01-28T21:05:51.816Z,89.31
2018-01-28T21:08:17.979Z,89.27
2018-01-28T21:10:44.139Z,89.33
2018-01-28T21:13:10.457Z,89.34
2018-01-28T21:15:36.634Z,89.33
2018-01-28T21:18:02.855Z,89.01
2018-01-28T21:20:29.076Z,89.13
2018-01-28T21:22:55.291Z,89.06
2018-01-28T21:25:21.567Z,89.20
2018-01-28T21:27:47.849Z,89.25
2018-01-28T21:30:14.101Z,89.27
2018-01-28T21:32:40.447Z,89.27
2018-01-28T21:35:06.657Z,89.11
2018-01-28T21:37:32.813Z,89.21
2018-01-28T21:39:59.108Z,89.34
2018-01-28T21:42:25.415Z,89.27
2018-01-28T21:44:51.582Z,89.23
2018-01-28T21:47:17.816Z,89.34
2018-01-28T21:49:44.045Z,89.33
2018-01-28T21:52:10.195Z,89.25
2018-01-28T21:54:36.536Z,89.28
2018-01-28T21:57:02.779Z,89.33
2018-01-28T21:59:29.029Z,89.32
2018-01-28T22:01:55.270Z,89.12
2018-01-28T22:04:21.494Z,88.97
2018-01-28T22:06:47.664Z,88.80
2018-01-28T22:09:34.787Z,88.57
2018-01-28T22:12:01.018Z,88.64
2018-01-28T22:14:27.169Z,88.30
2018-01-28T22:16:53.380Z,87.88
2018-01-28T22:19:19.538Z,87.36
2018-01-28T22:21:45.715Z,87.23
2018-01-28T22:26:44.781Z,86.50
2018-01-28T22:29:10.952Z,85.91
2018-01-28T22:31:37.202Z,85.66
2018-01-28T22:34:03.392Z,85.80
2018-01-28T22:36:29.574Z,85.22
2018-01-28T22:38:55.829Z,85.06
2018-01-28T22:41:22.091Z,84.95
2018-01-28T22:43:48.240Z,84.62
2018-01-28T22:46:14.465Z,84.43
2018-01-28T22:48:40.760Z,84.39
2018-01-28T22:51:06.934Z,84.43
2018-01-28T22:53:33.103Z,84.26
2018-01-28T22:55:59.321Z,84.39
2018-01-28T22:58:25.528Z,84.53
2018-01-28T23:00:51.734Z,84.26
2018-01-28T23:03:18.088Z,84.46
2018-01-28T23:05:44.350Z,84.07
2018-01-28T23:08:10.534Z,83.85
2018-01-28T23:10:36.714Z,83.49
2018-01-28T23:13:03.014Z,83.32
2018-01-28T23:15:29.186Z,83.37
2018-01-28T23:17:55.411Z,83.55
2018-01-28T23:20:21.713Z,83.51
2018-01-28T23:22:47.909Z,82.83
2018-01-28T23:25:14.129Z,82.77
2018-01-28T23:27:40.398Z,83.00
2018-01-28T23:30:06.519Z,83.49
2018-01-28T23:32:32.662Z,83.15
2018-01-28T23:34:58.819Z,82.92
2018-01-28T23:37:25.052Z,82.88
2018-01-28T23:39:51.274Z,82.55
2018-01-28T23:42:17.514Z,82.48
2018-01-28T23:44:43.676Z,82.23
2018-01-28T23:47:09.920Z,82.07
2018-01-28T23:49:36.168Z,82.04
2018-01-28T23:52:02.489Z,81.92
2018-01-28T23:54:28.809Z,81.84
2018-01-28T23:56:55.111Z,81.85
2018-01-28T23:59:21.388Z,81.81
